Portada
METAR-TAF:

METAR-TAF

Aeroports :

Houma-Terrebonne Airport

Houma, Louisiana, Estats Units d'Amèrica

latitud: 29-34N, longitud: 090-40W, altitud: 3 m

Observació

L'informe es va fer fa 20 minuts, a les 07:35 UTC
Vent 6 kt del Est/Nord-Est
Temperatura 3°C
Humitat 70%
Pressió 1028 hPa
Visibilitat: 11.3 km
Cel clar

METAR: KHUM 220735Z AUTO 07006KT 7SM CLR 03/M02 A3037 RMK AO2 T00311025

Hora: 01:55 (07:55 UTC)

Pronòstic

L'informe es va fer fa 2 hores i 30 minuts, a les 05:25 UTC
Pronòstic vàlid del 22 a les 06 UTC al 23 a les 06 UTC
Vent kt del Nord
Visibilitat: 10 km
Cel clar
A partir de les 22 a les 1900 UTC
Vent 8 kt del Est
Visibilitat: 10 km
Cel ennuvolat a una alçada de 7000 ft
A partir de les 23 a les 0200 UTC
Vent 7 kt del Est/Sud-Est
Visibilitat: 10 km
Cel cobert a una alçada de 7000 ft
xàfecs en les proximitats

TAF: KHUM 220525Z 2206/2306 00000KT P6SM SKC FM221900 10008KT P6SM BKN070 FM230200 11007KT P6SM VCSH OVC070

Observacions i pronòstics meteorològics de més de 4000 aeroports (METAR i TAF).

Les estacions disponibles són els punts grocs i vermells al mapa.

Posi el ratolí al punt desitjat per veure el nom de l'estació.

Feu clic per veure les observacions i els pronòstics meteorològics.

Per canviar el mapa: feu clic els botons verds amb una creu de color negre per apropar; al botó verd amb un guió per allunyar la imatge; o en les fletxes verdes per a mapes adjacents.


METAR-TAF: